METAR AND TAF INFORMATION
METAR FOR KNZY
KNZY 260252Z 31004KT 10SM FEW010 BKN200 15/13 A3001 RMK AO2 SLP162 T01500128 58007 $
KNZY 260152Z 30005KT 10SM FEW010 OVC200 16/13 A3002 RMK AO2 SLP164 T01610128 $
KNZY 260052Z 30004KT 10SM FEW010 BKN200 17/13 A3003 RMK AO2 SLP169 T01670128 $

TAF KNZY 2523/2623 30009KT 9999 SCT025 BKN200 QNH3002INS
FM260300 VRB06KT 9999 FEW018 BKN100 BKN230 QNH3004INS
FM261200 VRB06KT 9999 SCT012 BKN070 BKN180 620709 621602 QNH3008INS TX20/2623Z TN13/2614Z FS30186

 AIRPORT MAP

 RUNWAY INFORMATION
Runway 11 Runway length 7500 ft Runway width 300 ft
Runway elevation 19 ft Runway displaced threshold 0 ft Runway heading 122
Runway 29 Runway length 7500 ft Runway width 300 ft
Runway elevation 26 ft Runway displaced threshold 0 ft Runway heading 302
Runway 18 Runway length 8000 ft Runway width 200 ft
Runway elevation 19 ft Runway displaced threshold 0 ft Runway heading 196
Runway 36 Runway length 8000 ft Runway width 200 ft
Runway elevation 10 ft Runway displaced threshold 0 ft Runway heading 16

 AIRPORT FREQUENCIES
Type A/D Name SOCAL APP/ Frequency 125.15 MHZ
Type ATIS Name ATIS Frequency 31.78 MHZ
Type CLD Name CLNC DEL Frequency 128.4 MHZ
Type GND Name GND Frequency 118 MHZ
Type MISC Name ARNG OPS Frequency 142.95 MHZ
Type OPS Name BASE OPS Frequency 35.55 MHZ
Type PMSV Name PMSV METRO Frequency 34.235 MHZ
Type TWR Name TWR Frequency 135.1 MHZ

 AIRPORT NEAR NAVIGATION AIDS
Type TACAN Name North Island Frequency 117000 KHZ

-